To NAV CANADA Home Page Login to a new session Search on AWWS site Feedback and Comments Disclaimer Vers la page française équivalente Tips FAQ What's new on the site To the Forecasts and Observations / NOTAM section To "File a Flight Plan" website Publications and other links Update of the User's profile FIC Telephone Numbers My Weather Data Folder Route Weather Data Regional Weather Data Local Weather Data To the Forecasts and Observations / NOTAM section
Request Generated 01/21/2017 at 02:09:29 UTC . Weather information available at that time is displayed.

METAR/TAF

MONT-JOLI/QC    

METAR CYYY 210200Z 16008KT 30SM OVC030 M02/M05 A2986 RMK SC8 SLP116=
METAR CYYY 210100Z 16010KT 30SM OVC025 M02/M05 A2986 RMK SC8 PRESFR
SLP117=
METAR CYYY 210000Z 15006KT 30SM OVC023 M02/M05 A2990 RMK SC8 SLP128=

TAF CYYY 210138Z 2102/2114 16010KT P6SM BKN025 OVC070 TEMPO 2102/2107
5SM -SN OVC020
FM210700 17008KT 6SM -SN SCT015 OVC025 TEMPO 2107/2110 21/2SM -SN
OVC015 PROB30 2107/2110 11/2SM -SN
FM211000 19008KT P6SM SCT012 OVC030 TEMPO 2110/2114 5SM -SN
BKN012 OVC030 PROB30 2110/2114 4SM -FZDZ BR BKN008 OVC030
RMK NXT FCST BY 210800Z=
Your time UTC time
Weather data provided by Environment Canada and NAV CANADA